createdAt,value
2022-11-29T00:01:48.460Z,6.76
2022-11-29T00:04:16.582Z,8.43
2022-11-29T00:06:44.688Z,9.31
2022-11-29T00:09:14.052Z,7.96
2022-11-29T00:12:02.394Z,6.59
2022-11-29T00:14:30.596Z,5.45
2022-11-29T00:17:11.461Z,4.73
2022-11-29T00:19:39.412Z,4.81
2022-11-29T00:22:07.500Z,7.18
2022-11-29T00:24:36.594Z,9.18
2022-11-29T00:27:04.917Z,9.70
2022-11-29T00:29:33.890Z,8.14
2022-11-29T00:32:02.560Z,6.70
2022-11-29T00:34:30.470Z,5.69
2022-11-29T00:36:59.782Z,4.95
2022-11-29T00:39:27.894Z,4.42
2022-11-29T00:41:55.881Z,5.84
2022-11-29T00:44:23.944Z,8.13
2022-11-29T00:46:52.242Z,8.94
2022-11-29T00:49:20.133Z,7.67
2022-11-29T00:51:48.135Z,6.29
2022-11-29T00:54:17.441Z,5.28
2022-11-29T00:56:45.390Z,4.56
2022-11-29T00:59:13.379Z,4.01
2022-11-29T01:01:41.517Z,4.36
2022-11-29T01:04:10.134Z,7.34
2022-11-29T01:06:38.224Z,9.26
2022-11-29T01:09:06.509Z,9.76
2022-11-29T01:11:34.737Z,8.34
2022-11-29T01:14:03.885Z,6.87
2022-11-29T01:16:33.014Z,5.79
2022-11-29T01:19:01.136Z,4.95
2022-11-29T01:21:29.801Z,4.32
2022-11-29T01:23:57.920Z,3.87
2022-11-29T01:29:31.298Z,6.78
2022-11-29T01:31:59.408Z,7.87
2022-11-29T01:34:27.598Z,8.68
2022-11-29T01:36:55.579Z,9.11
2022-11-29T01:39:23.882Z,7.77
2022-11-29T01:41:52.089Z,6.43
2022-11-29T01:44:20.004Z,5.47
2022-11-29T01:46:49.239Z,4.69
2022-11-29T01:49:27.399Z,4.09
2022-11-29T01:52:05.139Z,4.23
2022-11-29T01:54:37.252Z,6.23
2022-11-29T01:57:17.714Z,7.30
2022-11-29T01:59:49.855Z,8.37
2022-11-29T02:02:22.697Z,8.56
2022-11-29T02:04:51.426Z,7.13
2022-11-29T02:07:19.800Z,5.96
2022-11-29T02:09:47.906Z,5.11
2022-11-29T02:12:35.027Z,4.60
2022-11-29T02:15:13.598Z,6.93
2022-11-29T02:18:06.669Z,9.12
2022-11-29T02:20:47.781Z,9.56
2022-11-29T02:23:44.779Z,7.90
2022-11-29T02:26:43.738Z,6.31
2022-11-29T02:30:05.168Z,5.25
2022-11-29T02:32:48.435Z,4.40
2022-11-29T02:35:19.656Z,4.67
2022-11-29T02:38:18.624Z,7.29
2022-11-29T02:41:05.422Z,9.36
2022-11-29T02:43:42.565Z,9.33
2022-11-29T02:46:39.783Z,7.67
2022-11-29T02:49:22.475Z,6.25
2022-11-29T02:52:07.020Z,5.31
2022-11-29T02:54:46.627Z,4.67
2022-11-29T02:57:21.991Z,6.41
2022-11-29T03:00:10.950Z,8.72
2022-11-29T03:02:51.470Z,9.16
2022-11-29T03:05:45.060Z,7.56
2022-11-29T03:08:35.609Z,6.08
2022-11-29T03:11:09.539Z,5.11
2022-11-29T03:13:55.948Z,4.43
2022-11-29T03:16:43.801Z,5.02
2022-11-29T03:19:34.053Z,7.94
2022-11-29T03:22:27.965Z,9.67
2022-11-29T03:25:07.663Z,8.63
2022-11-29T03:27:47.669Z,6.94
2022-11-29T03:30:19.745Z,5.66
2022-11-29T03:33:13.388Z,4.86
2022-11-29T03:35:48.181Z,6.22
2022-11-29T03:38:28.380Z,8.45
2022-11-29T03:41:15.227Z,9.50
2022-11-29T03:43:49.101Z,8.01
2022-11-29T03:46:32.449Z,6.63
2022-11-29T03:49:08.233Z,5.56
2022-11-29T03:52:08.618Z,4.85
2022-11-29T03:54:55.528Z,4.78
2022-11-29T03:57:40.806Z,7.39
2022-11-29T04:00:13.070Z,9.07
2022-11-29T04:03:11.856Z,8.62
2022-11-29T04:06:14.901Z,6.79
2022-11-29T04:08:52.544Z,5.41
2022-11-29T04:11:35.568Z,4.66
2022-11-29T04:14:03.515Z,4.80
2022-11-29T04:17:10.676Z,7.24
2022-11-29T04:20:08.097Z,9.20
2022-11-29T04:23:27.329Z,9.64
2022-11-29T04:26:01.051Z,7.47
2022-11-29T04:28:44.386Z,6.13
2022-11-29T04:31:34.420Z,5.10
2022-11-29T04:34:30.267Z,4.50
2022-11-29T04:37:30.291Z,6.65
2022-11-29T04:40:29.414Z,9.01
2022-11-29T04:43:11.549Z,9.14
2022-11-29T04:45:55.011Z,7.47
2022-11-29T04:48:25.583Z,6.09
2022-11-29T04:51:32.245Z,5.16
2022-11-29T04:54:12.886Z,4.29
2022-11-29T04:56:47.386Z,5.37
2022-11-29T04:59:35.789Z,8.07
2022-11-29T05:02:41.765Z,9.82
2022-11-29T05:05:22.215Z,8.46
2022-11-29T05:08:12.153Z,6.80
2022-11-29T05:10:48.522Z,5.62
2022-11-29T05:13:53.985Z,4.80
2022-11-29T05:16:40.374Z,5.37
2022-11-29T05:19:36.587Z,8.03
2022-11-29T05:22:19.106Z,9.63
2022-11-29T05:25:05.874Z,8.41
2022-11-29T05:27:41.869Z,6.75
2022-11-29T05:30:20.037Z,5.51
2022-11-29T05:33:12.465Z,4.81
2022-11-29T05:35:54.132Z,6.62
2022-11-29T05:38:58.082Z,8.69
2022-11-29T05:41:45.029Z,9.24
2022-11-29T05:44:53.956Z,7.55
2022-11-29T05:47:32.627Z,6.02
2022-11-29T05:50:15.117Z,5.14
2022-11-29T05:52:59.118Z,6.20
2022-11-29T05:55:44.220Z,8.27
2022-11-29T05:58:32.766Z,9.22
2022-11-29T06:01:14.408Z,7.69
2022-11-29T06:03:55.991Z,6.28
2022-11-29T06:06:35.114Z,5.25
2022-11-29T06:09:21.971Z,4.58
2022-11-29T06:12:05.447Z,6.19
2022-11-29T06:14:52.318Z,8.26
2022-11-29T06:17:45.019Z,9.52
2022-11-29T06:20:38.066Z,8.01
2022-11-29T06:23:29.267Z,6.30
2022-11-29T06:26:35.826Z,5.20
2022-11-29T06:29:04.049Z,4.68
2022-11-29T06:31:38.712Z,6.71
2022-11-29T06:34:23.138Z,8.45
2022-11-29T06:37:24.361Z,8.00
2022-11-29T06:40:23.834Z,6.32
2022-11-29T06:42:52.137Z,5.07
2022-11-29T06:45:22.220Z,4.62
2022-11-29T06:47:58.551Z,6.27
2022-11-29T06:50:36.401Z,8.70
2022-11-29T06:53:25.312Z,9.73
2022-11-29T06:56:21.244Z,8.27
2022-11-29T06:59:03.017Z,6.49
2022-11-29T07:01:43.619Z,5.28
2022-11-29T07:04:25.461Z,5.34
2022-11-29T07:06:57.365Z,7.79
2022-11-29T07:09:34.787Z,9.41
2022-11-29T07:12:03.329Z,9.54
2022-11-29T07:14:31.419Z,8.01
2022-11-29T07:17:11.712Z,6.67
2022-11-29T07:20:02.032Z,5.54
2022-11-29T07:22:30.230Z,4.69
2022-11-29T07:25:22.574Z,4.74
2022-11-29T07:28:04.695Z,7.50
2022-11-29T07:30:35.507Z,9.41
2022-11-29T07:33:18.602Z,9.08
2022-11-29T07:35:59.175Z,7.43
2022-11-29T07:39:05.248Z,6.00
2022-11-29T07:41:47.628Z,4.97
2022-11-29T07:45:06.369Z,4.50
2022-11-29T07:47:36.106Z,7.05
2022-11-29T07:50:05.850Z,9.04
2022-11-29T07:52:35.211Z,9.23
2022-11-29T07:55:05.168Z,7.72
2022-11-29T07:57:33.428Z,6.36
2022-11-29T08:00:04.258Z,5.36
2022-11-29T08:02:40.352Z,5.17
2022-11-29T08:05:12.999Z,7.55
2022-11-29T08:07:45.258Z,9.57
2022-11-29T08:10:17.064Z,9.12
2022-11-29T08:12:48.722Z,7.36
2022-11-29T08:15:19.118Z,6.07
2022-11-29T08:17:47.662Z,5.21
2022-11-29T08:20:16.868Z,6.55
2022-11-29T08:22:44.891Z,8.75
2022-11-29T08:25:13.464Z,9.79
2022-11-29T08:27:41.354Z,8.61
2022-11-29T08:30:09.519Z,7.01
2022-11-29T08:32:37.618Z,5.86
2022-11-29T08:35:05.791Z,5.07
2022-11-29T08:37:34.155Z,5.18
2022-11-29T08:40:04.640Z,7.43
2022-11-29T08:42:32.590Z,9.09
2022-11-29T08:45:00.557Z,8.52
2022-11-29T08:47:37.825Z,6.94
2022-11-29T08:50:14.772Z,5.74
2022-11-29T08:53:07.119Z,6.92
2022-11-29T08:55:42.974Z,9.43
2022-11-29T08:58:14.692Z,10.00
2022-11-29T09:00:46.385Z,8.50
2022-11-29T09:03:33.069Z,7.09
2022-11-29T09:06:16.114Z,5.96
2022-11-29T09:08:45.109Z,5.75
2022-11-29T09:11:20.147Z,8.00
2022-11-29T09:13:51.438Z,9.69
2022-11-29T09:16:23.840Z,8.78
2022-11-29T09:18:54.905Z,7.20
2022-11-29T09:21:26.105Z,6.08
2022-11-29T09:23:58.963Z,5.40
2022-11-29T09:26:29.733Z,7.04
2022-11-29T09:29:02.826Z,8.94
2022-11-29T09:31:32.180Z,8.12
2022-11-29T09:34:00.773Z,6.77
2022-11-29T09:36:36.705Z,5.71
2022-11-29T09:39:04.850Z,4.90
2022-11-29T09:41:54.976Z,4.37
2022-11-29T09:45:01.996Z,4.92
2022-11-29T09:47:39.633Z,7.50
2022-11-29T09:50:24.704Z,8.49
2022-11-29T09:53:06.036Z,8.33
2022-11-29T09:55:56.085Z,6.90
2022-11-29T09:58:29.371Z,5.72
2022-11-29T10:01:01.702Z,5.31
2022-11-29T10:03:36.959Z,7.38
2022-11-29T10:06:36.920Z,9.27
2022-11-29T10:09:17.296Z,9.42
2022-11-29T10:12:30.633Z,7.85
2022-11-29T10:15:09.477Z,6.41
2022-11-29T10:17:44.942Z,5.56
2022-11-29T10:20:18.377Z,4.97
2022-11-29T10:23:07.008Z,5.10
2022-11-29T10:25:42.421Z,7.63
2022-11-29T10:28:16.104Z,9.49
2022-11-29T10:30:44.704Z,9.48
2022-11-29T10:33:25.754Z,7.98
2022-11-29T10:36:00.736Z,6.72
2022-11-29T10:38:31.368Z,5.75
2022-11-29T10:41:21.451Z,5.95
2022-11-29T10:43:52.109Z,8.71
2022-11-29T10:46:38.797Z,9.82
2022-11-29T10:49:26.980Z,8.30
2022-11-29T10:51:55.164Z,6.82
2022-11-29T10:54:38.628Z,5.97
2022-11-29T10:57:16.360Z,5.55
2022-11-29T11:00:11.600Z,7.74
2022-11-29T11:02:40.292Z,10.08
2022-11-29T11:05:19.122Z,9.47
2022-11-29T11:07:57.626Z,7.86
2022-11-29T11:10:39.978Z,6.58
2022-11-29T11:13:22.731Z,5.65
2022-11-29T11:16:08.455Z,5.02
2022-11-29T11:18:37.469Z,6.50
2022-11-29T11:21:10.521Z,8.36
2022-11-29T11:23:48.758Z,8.10
2022-11-29T11:26:17.358Z,6.73
2022-11-29T11:29:02.745Z,5.75
2022-11-29T11:31:34.924Z,6.85
2022-11-29T11:34:40.600Z,8.90
2022-11-29T11:37:14.641Z,8.33
2022-11-29T11:39:43.861Z,7.05
2022-11-29T11:42:42.926Z,6.12
2022-11-29T11:45:11.014Z,5.25
2022-11-29T11:47:51.073Z,4.76
2022-11-29T11:50:28.279Z,6.29
2022-11-29T11:53:00.212Z,8.62
2022-11-29T11:55:40.815Z,9.42
2022-11-29T11:58:16.169Z,8.11
2022-11-29T12:01:03.985Z,6.80
2022-11-29T12:03:54.900Z,5.79
2022-11-29T12:06:40.767Z,5.79
2022-11-29T12:09:09.255Z,8.38
2022-11-29T12:12:00.985Z,9.41
2022-11-29T12:14:51.626Z,8.08
2022-11-29T12:17:39.987Z,6.83
2022-11-29T12:20:17.752Z,5.97
2022-11-29T12:23:08.067Z,5.37
2022-11-29T12:25:44.735Z,5.68
2022-11-29T12:28:20.032Z,8.27
2022-11-29T12:31:20.411Z,10.07
2022-11-29T12:34:13.264Z,10.02
2022-11-29T12:37:08.788Z,8.28
2022-11-29T12:39:50.150Z,6.86
2022-11-29T12:42:36.282Z,5.87
2022-11-29T12:45:17.105Z,5.12
2022-11-29T12:48:17.657Z,5.37
2022-11-29T12:55:38.047Z,8.70
2022-11-29T12:58:14.315Z,7.23
2022-11-29T13:01:24.159Z,6.17
2022-11-29T13:04:19.110Z,5.22
2022-11-29T13:07:49.553Z,4.63
2022-11-29T13:11:07.998Z,5.40
2022-11-29T13:14:27.111Z,8.60
2022-11-29T13:16:57.374Z,9.99
2022-11-29T13:19:43.489Z,8.80
2022-11-29T13:22:47.858Z,7.19
2022-11-29T13:25:21.803Z,6.02
2022-11-29T13:28:01.829Z,5.31
2022-11-29T13:30:41.543Z,4.75
2022-11-29T13:33:25.223Z,4.36
2022-11-29T13:36:26.216Z,4.76
2022-11-29T13:39:02.577Z,7.91
2022-11-29T13:41:35.677Z,9.84
2022-11-29T13:44:25.729Z,10.10
2022-11-29T13:47:05.467Z,8.36
2022-11-29T13:50:02.797Z,7.07
2022-11-29T13:52:42.182Z,6.11
2022-11-29T13:55:14.427Z,5.42
2022-11-29T13:58:16.182Z,4.92
2022-11-29T14:00:45.281Z,4.45
2022-11-29T14:03:28.935Z,5.02
2022-11-29T14:06:13.757Z,8.45
2022-11-29T14:09:22.679Z,9.79
2022-11-29T14:12:00.636Z,8.09
2022-11-29T14:14:35.218Z,6.68
2022-11-29T14:17:06.113Z,5.74
2022-11-29T14:19:36.652Z,5.03
2022-11-29T14:22:19.685Z,5.75
2022-11-29T14:25:00.863Z,9.00
2022-11-29T14:27:29.014Z,9.76
2022-11-29T14:29:58.591Z,8.24
2022-11-29T14:32:46.188Z,6.93
2022-11-29T14:35:32.231Z,5.91
2022-11-29T14:38:19.567Z,5.10
2022-11-29T14:40:59.733Z,4.51
2022-11-29T14:43:35.607Z,5.05
2022-11-29T14:46:15.926Z,8.43
2022-11-29T14:48:58.650Z,10.05
2022-11-29T14:51:30.911Z,8.57
2022-11-29T14:54:14.461Z,7.11
2022-11-29T14:56:45.137Z,6.07
2022-11-29T14:59:40.602Z,5.33
2022-11-29T15:02:17.957Z,5.44
2022-11-29T15:04:48.294Z,8.61
2022-11-29T15:07:22.948Z,9.97
2022-11-29T15:09:53.350Z,8.56
2022-11-29T15:12:26.877Z,7.06
2022-11-29T15:15:43.859Z,5.99
2022-11-29T15:18:48.427Z,5.02
2022-11-29T15:21:16.462Z,4.65
2022-11-29T15:23:44.740Z,7.17
2022-11-29T15:26:21.919Z,9.90
2022-11-29T15:28:49.903Z,9.89
2022-11-29T15:31:20.440Z,8.18
2022-11-29T15:33:50.888Z,6.83
2022-11-29T15:36:22.009Z,5.93
2022-11-29T15:38:53.510Z,5.28
2022-11-29T15:41:29.034Z,4.73
2022-11-29T15:44:04.024Z,4.28
2022-11-29T15:46:34.435Z,3.93
2022-11-29T15:49:35.157Z,4.55
2022-11-29T15:52:10.962Z,8.58
2022-11-29T15:54:45.035Z,10.41
2022-11-29T15:57:19.017Z,9.26
2022-11-29T15:59:52.342Z,7.61
2022-11-29T16:02:29.840Z,6.46
2022-11-29T16:05:08.814Z,5.65
2022-11-29T16:07:40.153Z,5.03
2022-11-29T16:10:16.281Z,4.55
2022-11-29T16:13:00.252Z,4.16
2022-11-29T16:15:40.709Z,4.45
2022-11-29T16:18:14.953Z,7.64
2022-11-29T16:20:43.037Z,9.84
2022-11-29T16:23:13.571Z,10.28
2022-11-29T16:25:57.040Z,8.68
2022-11-29T16:28:35.405Z,7.17
2022-11-29T16:31:05.067Z,6.18
2022-11-29T16:33:33.263Z,5.49
2022-11-29T16:36:18.641Z,5.04
2022-11-29T16:38:49.542Z,7.11
2022-11-29T16:41:44.194Z,9.38
2022-11-29T16:44:46.546Z,8.54
2022-11-29T16:47:25.691Z,6.76
2022-11-29T16:50:06.453Z,5.76
2022-11-29T16:52:38.004Z,4.98
2022-11-29T16:55:13.080Z,5.13
2022-11-29T16:57:41.219Z,7.62
2022-11-29T17:00:36.881Z,8.79
2022-11-29T17:03:05.193Z,7.32
2022-11-29T17:05:33.589Z,6.05
2022-11-29T17:08:02.147Z,5.19
2022-11-29T17:10:31.276Z,4.55
2022-11-29T17:12:59.407Z,4.09
2022-11-29T17:15:27.564Z,4.91
2022-11-29T17:17:56.345Z,7.56
2022-11-29T17:20:24.372Z,9.34
2022-11-29T17:22:52.438Z,8.66
2022-11-29T17:25:22.097Z,7.21
2022-11-29T17:27:51.037Z,6.09
2022-11-29T17:30:19.999Z,5.29
2022-11-29T17:32:49.665Z,4.66
2022-11-29T17:35:17.598Z,4.51
2022-11-29T17:37:45.794Z,6.49
2022-11-29T17:40:15.591Z,8.19
2022-11-29T17:42:46.493Z,8.63
2022-11-29T17:45:16.077Z,7.41
2022-11-29T17:47:44.461Z,6.23
2022-11-29T17:53:48.583Z,4.70
2022-11-29T17:59:34.696Z,4.88
2022-11-29T18:02:06.109Z,7.88
2022-11-29T18:04:35.858Z,9.34
2022-11-29T18:10:57.746Z,6.34
2022-11-29T18:14:59.995Z,5.12
2022-11-29T18:20:59.618Z,8.43
2022-11-29T18:26:52.234Z,7.43
2022-11-29T18:29:20.875Z,6.30
2022-11-29T18:31:49.157Z,5.50
2022-11-29T18:34:18.250Z,4.93
2022-11-29T18:36:48.740Z,6.35
2022-11-29T18:39:23.305Z,8.75
2022-11-29T18:41:51.524Z,9.60
2022-11-29T18:44:21.733Z,8.25
2022-11-29T18:46:50.035Z,6.82
2022-11-29T18:49:18.725Z,5.85
2022-11-29T18:51:48.455Z,5.19
2022-11-29T18:54:18.923Z,5.78
2022-11-29T18:56:52.124Z,8.02
2022-11-29T18:59:23.537Z,8.39
2022-11-29T19:02:03.590Z,7.12
2022-11-29T19:04:32.376Z,5.92
2022-11-29T19:07:01.230Z,5.13
2022-11-29T19:09:30.723Z,4.51
2022-11-29T19:12:03.988Z,4.03
2022-11-29T19:14:32.445Z,4.27
2022-11-29T19:17:00.627Z,6.96
2022-11-29T19:19:46.044Z,9.21
2022-11-29T19:22:14.632Z,9.77
2022-11-29T19:24:42.682Z,8.21
2022-11-29T19:27:10.784Z,6.86
2022-11-29T19:29:40.091Z,5.93
2022-11-29T19:32:11.529Z,5.25
2022-11-29T19:34:39.497Z,4.70
2022-11-29T19:37:09.472Z,4.25
2022-11-29T19:39:39.060Z,3.87
2022-11-29T19:42:06.984Z,4.55
2022-11-29T19:44:54.291Z,7.96
2022-11-29T19:47:23.637Z,9.84
2022-11-29T19:49:52.168Z,8.94
2022-11-29T19:52:20.766Z,7.42
2022-11-29T19:54:49.869Z,6.31
2022-11-29T19:57:22.961Z,5.42
2022-11-29T19:59:51.010Z,4.84
2022-11-29T20:02:19.160Z,6.80
2022-11-29T20:04:50.555Z,9.17
2022-11-29T20:07:19.482Z,9.47
2022-11-29T20:09:48.793Z,8.01
2022-11-29T20:12:16.819Z,6.68
2022-11-29T20:14:45.655Z,5.71
2022-11-29T20:17:18.427Z,5.01
2022-11-29T20:19:46.904Z,4.47
2022-11-29T20:22:15.666Z,4.07
2022-11-29T20:24:56.477Z,4.64
2022-11-29T20:27:25.552Z,7.50
2022-11-29T20:29:53.635Z,8.93
2022-11-29T20:32:23.162Z,7.92
2022-11-29T20:34:52.626Z,6.55
2022-11-29T20:37:30.768Z,5.58
2022-11-29T20:40:06.101Z,4.85
2022-11-29T20:43:01.962Z,5.05
2022-11-29T20:45:44.447Z,8.25
2022-11-29T20:48:21.311Z,9.16
2022-11-29T20:51:01.302Z,7.78
2022-11-29T20:53:43.247Z,6.48
2022-11-29T20:56:13.848Z,5.50
2022-11-29T20:58:43.320Z,4.83
2022-11-29T21:01:11.652Z,4.38
2022-11-29T21:03:39.751Z,3.99
2022-11-29T21:06:08.055Z,3.65
2022-11-29T21:08:37.360Z,4.08
2022-11-29T21:11:10.619Z,6.57
2022-11-29T21:13:39.854Z,8.33
2022-11-29T21:16:10.147Z,9.03
2022-11-29T21:18:38.586Z,7.83
2022-11-29T21:21:28.713Z,6.56
2022-11-29T21:24:11.492Z,5.52
2022-11-29T21:26:50.319Z,4.84
2022-11-29T21:29:23.296Z,4.34
2022-11-29T21:31:55.250Z,3.98
2022-11-29T21:34:23.182Z,3.67
2022-11-29T21:37:08.944Z,4.02
2022-11-29T21:39:38.586Z,7.08
2022-11-29T21:42:07.661Z,8.84
2022-11-29T21:44:35.994Z,9.26
2022-11-29T21:47:07.226Z,7.96
2022-11-29T21:49:37.968Z,6.71
2022-11-29T21:52:07.881Z,5.80
2022-11-29T21:54:49.777Z,5.09
2022-11-29T21:57:17.799Z,4.57
2022-11-29T21:59:46.632Z,4.14
2022-11-29T22:02:15.315Z,4.48
2022-11-29T22:04:45.938Z,7.37
2022-11-29T22:07:25.078Z,9.53
2022-11-29T22:09:53.093Z,9.60
2022-11-29T22:12:34.329Z,8.07
2022-11-29T22:15:03.860Z,6.69
2022-11-29T22:17:32.698Z,5.77
2022-11-29T22:20:00.653Z,5.04
2022-11-29T22:22:30.531Z,4.43
2022-11-29T22:24:59.387Z,3.98
2022-11-29T22:27:27.577Z,3.64
2022-11-29T22:29:56.447Z,4.14
2022-11-29T22:32:25.314Z,7.30
2022-11-29T22:34:55.357Z,9.72
2022-11-29T22:37:23.660Z,10.08
2022-11-29T22:39:51.619Z,8.47
2022-11-29T22:42:21.230Z,7.06
2022-11-29T22:44:49.929Z,6.03
2022-11-29T22:47:17.994Z,5.32
2022-11-29T22:49:45.904Z,4.77
2022-11-29T22:52:14.478Z,4.26
2022-11-29T22:54:42.691Z,5.92
2022-11-29T22:57:10.630Z,8.87
2022-11-29T22:59:39.221Z,10.02
2022-11-29T23:02:07.419Z,8.67
2022-11-29T23:04:35.615Z,7.24
2022-11-29T23:07:11.630Z,6.22
2022-11-29T23:09:45.956Z,5.41
2022-11-29T23:12:14.873Z,4.81
2022-11-29T23:14:43.616Z,4.34
2022-11-29T23:17:12.969Z,4.95
2022-11-29T23:19:42.091Z,8.05
2022-11-29T23:22:10.559Z,9.63
2022-11-29T23:24:42.544Z,8.37
2022-11-29T23:27:12.025Z,6.95
2022-11-29T23:29:40.270Z,5.97
2022-11-29T23:32:09.468Z,5.22
2022-11-29T23:34:38.742Z,4.63
2022-11-29T23:37:08.332Z,4.20
2022-11-29T23:39:36.469Z,3.88
2022-11-29T23:42:05.605Z,5.53
2022-11-29T23:44:35.947Z,8.42
2022-11-29T23:47:08.128Z,9.64
2022-11-29T23:49:40.045Z,8.33
2022-11-29T23:52:08.308Z,6.90
2022-11-29T23:54:37.977Z,5.92
2022-11-29T23:57:06.405Z,5.15
2022-11-29T23:59:35.249Z,4.60
